Deep Seas — ZCPR4 — position and weather

sailwx.info

Track history (hours):
 
Tides and Currents Weather Stations Pressure Air Temp Water Temp Dewpoint Dewpoint Depression Visibility Wind Speed Wind Dir Waves Ship Positions

Deep Seas

Last reported at 2015-Jul-20 01:11 UTC. Time now 2015-Aug-01 11:45 UTC.
Position N 32°08' E 119°55'.
Warning: this ship's position is 12 days out of date.

Length 225 m; draft 7.4 m.

Type: Cargo ship. MMSI: 319138000.

Date/timePositionNaut miles runAvg speedWind from/ knotsBaromVisibWave heightAir tempDewpointWater temp
2015-Jul-20 01:11N 32°08' E 119°55'3 5.0
2015-Jul-20 00:33N 32°05' E 119°56'0 0.0
2015-Jul-19 23:15N 32°05' E 119°56'0 0.0
2015-Jul-19 22:27N 32°05' E 119°56'0 0.0
2015-Jul-19 19:21N 32°05' E 119°56'0 0.0
2015-Jul-19 18:03N 32°05' E 119°56'17 1.4
2015-Jul-19 06:33N 31°56' E 120°12'10 9.7
2015-Jul-19 05:33N 32°00' E 120°22'9 8.8
2015-Jul-19 04:33N 32°04' E 120°32'35 8.8
2015-Jul-19 00:34N 31°44' E 121°06'1010.3
2015-Jul-18 23:34N 31°38' E 121°16'4 3.9
2015-Jul-18 22:30N 31°35' E 121°19'0 0.0
2015-Jul-18 21:30N 31°35' E 121°19'0 0.2
2015-Jul-18 20:33N 31°35' E 121°19'0 0.1
2015-Jul-18 19:33N 31°35' E 121°19'0 0.1
2015-Jul-18 18:33N 31°35' E 121°19'0 0.1
2015-Jul-18 17:33N 31°35' E 121°19'0 0.1
2015-Jul-18 16:33N 31°35' E 121°19'0 0.2
2015-Jul-18 15:24N 31°35' E 121°19'0 0.0
2015-Jul-18 14:30N 31°35' E 121°19'0 0.0
2015-Jul-18 13:30N 31°35' E 121°19'0 0.0
2015-Jul-18 12:30N 31°35' E 121°19'0 0.0
2015-Jul-18 11:30N 31°35' E 121°19'0 0.0
2015-Jul-18 10:30N 31°35' E 121°19'0 0.1
2015-Jul-18 09:33N 31°35' E 121°19'8 8.2
2015-Jul-18 08:33N 31°29' E 121°26'8 7.9
2015-Jul-18 07:33N 31°24' E 121°33'8 8.3
2015-Jul-18 06:33N 31°20' E 121°42'9 9.0
2015-Jul-18 05:33N 31°13' E 121°48'1312.7
2015-Jul-18 04:33N 31°05' E 122°00'1110.8
2015-Jul-18 03:32N 31°03' E 122°13'1110.1
2015-Jul-18 02:28N 31°01' E 122°25'19 9.9
2015-Jul-18 00:30N 31°03' E 122°48'  
2015-Jul-15 00:15N 31°13' E 122°50'0 0.1
2015-Jul-14 21:09N 31°13' E 122°50'0 0.0
2015-Jul-14 20:33N 31°13' E 122°50'0 0.0
2015-Jul-14 19:27N 31°13' E 122°50'0 0.1
2015-Jul-14 17:33N 31°13' E 122°50'0 0.1
2015-Jul-14 16:33N 31°13' E 122°50'0 0.0
2015-Jul-14 15:33N 31°13' E 122°50'0 0.0
2015-Jul-14 12:21N 31°13' E 122°50'0 0.0
2015-Jul-14 11:33N 31°13' E 122°50'6 6.4
2015-Jul-14 10:33N 31°07' E 122°50'1211.5
2015-Jul-14 09:33N 31°05' E 122°37'10 9.8
2015-Jul-14 08:33N 31°05' E 122°26'1211.9
2015-Jul-14 07:33N 31°10' E 122°13'1514.7
2015-Jul-14 06:33N 31°15' E 121°57'1313.1
2015-Jul-14 05:34N 31°19' E 121°42'0 0.4
2015-Jul-14 04:32N 31°19' E 121°42'0 0.0
2015-Jul-14 03:29N 31°19' E 121°42'0 0.0
2015-Jul-14 02:32N 31°19' E 121°42'0 0.0
2015-Jul-14 01:32N 31°19' E 121°42'0 0.0
2015-Jul-14 00:32N 31°19' E 121°42'0 0.0
2015-Jul-13 23:32N 31°19' E 121°42'0 0.0
2015-Jul-13 22:32N 31°19' E 121°42'0 0.0
2015-Jul-13 21:32N 31°19' E 121°42'0 0.0
2015-Jul-13 20:32N 31°19' E 121°42'0 0.0
2015-Jul-13 19:32N 31°19' E 121°42'0 0.0
2015-Jul-13 18:32N 31°19' E 121°42'0 0.1
2015-Jul-13 17:32N 31°19' E 121°42'0 0.1
2015-Jul-13 16:32N 31°19' E 121°42'0 0.0
2015-Jul-13 15:32N 31°19' E 121°42'0 0.1
2015-Jul-13 14:32N 31°19' E 121°42'0 0.0
2015-Jul-13 13:29N 31°19' E 121°42'0 0.0
2015-Jul-13 12:32N 31°19' E 121°42'0 0.0
2015-Jul-13 11:32N 31°19' E 121°42'0 0.0
2015-Jul-13 10:32N 31°19' E 121°42'0 0.1
2015-Jul-13 09:32N 31°19' E 121°42'0 0.1
2015-Jul-13 08:32N 31°19' E 121°42'0 0.0
2015-Jul-13 07:32N 31°19' E 121°42'0 0.0
2015-Jul-13 06:32N 31°19' E 121°42'0 0.0
2015-Jul-13 05:32N 31°19' E 121°42'0 0.0
2015-Jul-13 04:29N 31°19' E 121°42'0 0.0
2015-Jul-13 03:32N 31°19' E 121°42'0 0.0
2015-Jul-13 02:29N 31°19' E 121°42'0 0.0
2015-Jul-13 01:32N 31°19' E 121°42'0 0.0
2015-Jul-13 00:32N 31°19' E 121°42'0 0.0
2015-Jul-12 23:32N 31°19' E 121°42'0 0.0
2015-Jul-12 22:32N 31°19' E 121°42'0 0.0
2015-Jul-12 21:32N 31°19' E 121°42'0 0.0
2015-Jul-12 20:32N 31°19' E 121°42'0 0.0
2015-Jul-12 19:32N 31°19' E 121°42'0 0.0
2015-Jul-12 18:32N 31°19' E 121°42'0 0.0
2015-Jul-12 17:29N 31°19' E 121°42'0 0.0
2015-Jul-12 16:29N 31°19' E 121°42'0 0.0
2015-Jul-12 15:32N 31°19' E 121°42'0 0.0
2015-Jul-12 14:32N 31°19' E 121°42'0 0.0
2015-Jul-12 13:32N 31°19' E 121°42'0 0.0
2015-Jul-12 12:29N 31°19' E 121°42'0 0.0
2015-Jul-12 11:32N 31°19' E 121°42'0 0.0
2015-Jul-12 10:32N 31°19' E 121°42'0 0.0
2015-Jul-12 09:32N 31°19' E 121°42'0 0.0
2015-Jul-12 08:23N 31°19' E 121°42'0 0.0
2015-Jul-12 07:32N 31°19' E 121°42'0 0.0
2015-Jul-12 06:29N 31°19' E 121°42'0 0.0
2015-Jul-12 05:32N 31°19' E 121°42'1 1.4
2015-Jul-12 04:33N 31°20' E 121°41'1 1.3
2015-Jul-12 03:33N 31°21' E 121°40'0 0.0
2015-Jul-12 02:33N 31°21' E 121°40'0 0.0
2015-Jul-12 01:33N 31°21' E 121°40'0 0.0
2015-Jul-12 00:33N 31°21' E 121°40'0 0.0
2015-Jul-11 23:27N 31°21' E 121°40'0 0.0
2015-Jul-11 22:33N 31°21' E 121°40'0 0.0
2015-Jul-11 21:33N 31°21' E 121°40'0 0.1
2015-Jul-11 20:33N 31°21' E 121°40'0 0.1
2015-Jul-11 19:33N 31°21' E 121°40'0 0.0
2015-Jul-11 18:33N 31°21' E 121°40'0 0.0
2015-Jul-11 17:33N 31°21' E 121°40'0 0.1
2015-Jul-11 16:30N 31°21' E 121°40'0 0.0
2015-Jul-11 15:33N 31°21' E 121°40'0 0.1
2015-Jul-11 14:33N 31°21' E 121°40'0 0.1
2015-Jul-11 13:33N 31°21' E 121°40'0 0.1
2015-Jul-11 12:33N 31°21' E 121°40'0 0.1
2015-Jul-11 11:33N 31°21' E 121°40'0 0.0
2015-Jul-11 10:33N 31°21' E 121°40'0 0.0
2015-Jul-11 09:33N 31°21' E 121°40'0 0.2
2015-Jul-11 08:33N 31°21' E 121°40'0 0.1
2015-Jul-11 07:34N 31°21' E 121°40'0 0.0
2015-Jul-11 06:31N 31°21' E 121°40'0 0.0
2015-Jul-11 05:34N 31°21' E 121°40'0 0.0
2015-Jul-11 04:34N 31°21' E 121°40'0 0.1
2015-Jul-11 03:34N 31°21' E 121°40'0 0.1
2015-Jul-11 02:34N 31°21' E 121°40'0 0.1
2015-Jul-11 01:31N 31°21' E 121°40'0 0.1
2015-Jul-11 00:34N 31°21' E 121°40'0 0.1
2015-Jul-10 23:31N 31°21' E 121°40'0 0.0
2015-Jul-10 22:31N 31°21' E 121°40'0 0.0
2015-Jul-10 21:31N 31°21' E 121°40'0 0.0
2015-Jul-10 20:31N 31°21' E 121°40'0 0.2
2015-Jul-10 19:31N 31°21' E 121°40'0 0.0
2015-Jul-10 18:31N 31°21' E 121°40'0 0.2
2015-Jul-10 17:31N 31°21' E 121°40'0 0.0
2015-Jul-10 16:22N 31°21' E 121°40'0 0.1
2015-Jul-10 15:31N 31°21' E 121°40'0 0.0
2015-Jul-10 14:31N 31°21' E 121°40'0 0.1
2015-Jul-10 13:31N 31°21' E 121°40'0 0.1
2015-Jul-10 12:31N 31°21' E 121°40'0 0.1
2015-Jul-10 11:31N 31°21' E 121°40'0 0.1
2015-Jul-10 10:31N 31°21' E 121°40'0 0.1
2015-Jul-10 09:31N 31°21' E 121°40'3 2.9
2015-Jul-10 08:32N 31°19' E 121°42'0 0.0
2015-Jul-10 07:32N 31°19' E 121°42'0 0.0
2015-Jul-10 06:32N 31°19' E 121°42'0 0.0
2015-Jul-10 05:32N 31°19' E 121°42'0 0.0
2015-Jul-10 04:32N 31°19' E 121°42'0 0.0
2015-Jul-10 03:32N 31°19' E 121°42'0 0.0
2015-Jul-10 02:32N 31°19' E 121°42'0 0.0
2015-Jul-10 01:32N 31°19' E 121°42'  
Track history (hours):
 
Tides and Currents Weather Stations Pressure Air Temp Water Temp Dewpoint Dewpoint Depression Visibility Wind Speed Wind Dir Waves Ship Positions

Deep Seas

Last reported at 2015-Jul-20 01:11 UTC. Time now 2015-Aug-01 11:45 UTC.
Position N 32°08' E 119°55'.
Warning: this ship's position is 12 days out of date.

Length 225 m; draft 7.4 m.

Type: Cargo ship. MMSI: 319138000.

Date/timePositionNaut miles runAvg speedWind from/ knotsBaromVisibWave heightAir tempDewpointWater temp
2015-Jul-20 01:11N 32°08' E 119°55'3 5.0
2015-Jul-20 00:33N 32°05' E 119°56'0 0.0
2015-Jul-19 23:15N 32°05' E 119°56'0 0.0
2015-Jul-19 22:27N 32°05' E 119°56'0 0.0
2015-Jul-19 19:21N 32°05' E 119°56'0 0.0
2015-Jul-19 18:03N 32°05' E 119°56'17 1.4
2015-Jul-19 06:33N 31°56' E 120°12'10 9.7
2015-Jul-19 05:33N 32°00' E 120°22'9 8.8
2015-Jul-19 04:33N 32°04' E 120°32'35 8.8
2015-Jul-19 00:34N 31°44' E 121°06'1010.3
2015-Jul-18 23:34N 31°38' E 121°16'4 3.9
2015-Jul-18 22:30N 31°35' E 121°19'0 0.0
2015-Jul-18 21:30N 31°35' E 121°19'0 0.2
2015-Jul-18 20:33N 31°35' E 121°19'0 0.1
2015-Jul-18 19:33N 31°35' E 121°19'0 0.1
2015-Jul-18 18:33N 31°35' E 121°19'0 0.1
2015-Jul-18 17:33N 31°35' E 121°19'0 0.1
2015-Jul-18 16:33N 31°35' E 121°19'0 0.2
2015-Jul-18 15:24N 31°35' E 121°19'0 0.0
2015-Jul-18 14:30N 31°35' E 121°19'0 0.0
2015-Jul-18 13:30N 31°35' E 121°19'0 0.0
2015-Jul-18 12:30N 31°35' E 121°19'0 0.0
2015-Jul-18 11:30N 31°35' E 121°19'0 0.0
2015-Jul-18 10:30N 31°35' E 121°19'0 0.1
2015-Jul-18 09:33N 31°35' E 121°19'8 8.2
2015-Jul-18 08:33N 31°29' E 121°26'8 7.9
2015-Jul-18 07:33N 31°24' E 121°33'8 8.3
2015-Jul-18 06:33N 31°20' E 121°42'9 9.0
2015-Jul-18 05:33N 31°13' E 121°48'1312.7
2015-Jul-18 04:33N 31°05' E 122°00'1110.8
2015-Jul-18 03:32N 31°03' E 122°13'1110.1
2015-Jul-18 02:28N 31°01' E 122°25'19 9.9
2015-Jul-18 00:30N 31°03' E 122°48'  
2015-Jul-15 00:15N 31°13' E 122°50'0 0.1
2015-Jul-14 21:09N 31°13' E 122°50'0 0.0
2015-Jul-14 20:33N 31°13' E 122°50'0 0.0
2015-Jul-14 19:27N 31°13' E 122°50'0 0.1
2015-Jul-14 17:33N 31°13' E 122°50'0 0.1
2015-Jul-14 16:33N 31°13' E 122°50'0 0.0
2015-Jul-14 15:33N 31°13' E 122°50'0 0.0
2015-Jul-14 12:21N 31°13' E 122°50'0 0.0
2015-Jul-14 11:33N 31°13' E 122°50'6 6.4
2015-Jul-14 10:33N 31°07' E 122°50'1211.5
2015-Jul-14 09:33N 31°05' E 122°37'10 9.8
2015-Jul-14 08:33N 31°05' E 122°26'1211.9
2015-Jul-14 07:33N 31°10' E 122°13'1514.7
2015-Jul-14 06:33N 31°15' E 121°57'1313.1
2015-Jul-14 05:34N 31°19' E 121°42'0 0.4
2015-Jul-14 04:32N 31°19' E 121°42'0 0.0
2015-Jul-14 03:29N 31°19' E 121°42'0 0.0
2015-Jul-14 02:32N 31°19' E 121°42'0 0.0
2015-Jul-14 01:32N 31°19' E 121°42'0 0.0
2015-Jul-14 00:32N 31°19' E 121°42'0 0.0
2015-Jul-13 23:32N 31°19' E 121°42'0 0.0
2015-Jul-13 22:32N 31°19' E 121°42'0 0.0
2015-Jul-13 21:32N 31°19' E 121°42'0 0.0
2015-Jul-13 20:32N 31°19' E 121°42'0 0.0
2015-Jul-13 19:32N 31°19' E 121°42'0 0.0
2015-Jul-13 18:32N 31°19' E 121°42'0 0.1
2015-Jul-13 17:32N 31°19' E 121°42'0 0.1
2015-Jul-13 16:32N 31°19' E 121°42'0 0.0
2015-Jul-13 15:32N 31°19' E 121°42'0 0.1
2015-Jul-13 14:32N 31°19' E 121°42'0 0.0
2015-Jul-13 13:29N 31°19' E 121°42'0 0.0
2015-Jul-13 12:32N 31°19' E 121°42'0 0.0
2015-Jul-13 11:32N 31°19' E 121°42'0 0.0
2015-Jul-13 10:32N 31°19' E 121°42'0 0.1
2015-Jul-13 09:32N 31°19' E 121°42'0 0.1
2015-Jul-13 08:32N 31°19' E 121°42'0 0.0
2015-Jul-13 07:32N 31°19' E 121°42'0 0.0
2015-Jul-13 06:32N 31°19' E 121°42'0 0.0
2015-Jul-13 05:32N 31°19' E 121°42'0 0.0
2015-Jul-13 04:29N 31°19' E 121°42'0 0.0
2015-Jul-13 03:32N 31°19' E 121°42'0 0.0
2015-Jul-13 02:29N 31°19' E 121°42'0 0.0
2015-Jul-13 01:32N 31°19' E 121°42'0 0.0
2015-Jul-13 00:32N 31°19' E 121°42'0 0.0
2015-Jul-12 23:32N 31°19' E 121°42'0 0.0
2015-Jul-12 22:32N 31°19' E 121°42'0 0.0
2015-Jul-12 21:32N 31°19' E 121°42'0 0.0
2015-Jul-12 20:32N 31°19' E 121°42'0 0.0
2015-Jul-12 19:32N 31°19' E 121°42'0 0.0
2015-Jul-12 18:32N 31°19' E 121°42'0 0.0
2015-Jul-12 17:29N 31°19' E 121°42'0 0.0
2015-Jul-12 16:29N 31°19' E 121°42'0 0.0
2015-Jul-12 15:32N 31°19' E 121°42'0 0.0
2015-Jul-12 14:32N 31°19' E 121°42'0 0.0
2015-Jul-12 13:32N 31°19' E 121°42'0 0.0
2015-Jul-12 12:29N 31°19' E 121°42'0 0.0
2015-Jul-12 11:32N 31°19' E 121°42'0 0.0
2015-Jul-12 10:32N 31°19' E 121°42'0 0.0
2015-Jul-12 09:32N 31°19' E 121°42'0 0.0
2015-Jul-12 08:23N 31°19' E 121°42'0 0.0
2015-Jul-12 07:32N 31°19' E 121°42'0 0.0
2015-Jul-12 06:29N 31°19' E 121°42'0 0.0
2015-Jul-12 05:32N 31°19' E 121°42'1 1.4
2015-Jul-12 04:33N 31°20' E 121°41'1 1.3
2015-Jul-12 03:33N 31°21' E 121°40'0 0.0
2015-Jul-12 02:33N 31°21' E 121°40'0 0.0
2015-Jul-12 01:33N 31°21' E 121°40'0 0.0
2015-Jul-12 00:33N 31°21' E 121°40'0 0.0
2015-Jul-11 23:27N 31°21' E 121°40'0 0.0
2015-Jul-11 22:33N 31°21' E 121°40'0 0.0
2015-Jul-11 21:33N 31°21' E 121°40'0 0.1
2015-Jul-11 20:33N 31°21' E 121°40'0 0.1
2015-Jul-11 19:33N 31°21' E 121°40'0 0.0
2015-Jul-11 18:33N 31°21' E 121°40'0 0.0
2015-Jul-11 17:33N 31°21' E 121°40'0 0.1
2015-Jul-11 16:30N 31°21' E 121°40'0 0.0
2015-Jul-11 15:33N 31°21' E 121°40'0 0.1
2015-Jul-11 14:33N 31°21' E 121°40'0 0.1
2015-Jul-11 13:33N 31°21' E 121°40'0 0.1
2015-Jul-11 12:33N 31°21' E 121°40'0 0.1
2015-Jul-11 11:33N 31°21' E 121°40'0 0.0
2015-Jul-11 10:33N 31°21' E 121°40'0 0.0
2015-Jul-11 09:33N 31°21' E 121°40'0 0.2
2015-Jul-11 08:33N 31°21' E 121°40'0 0.1
2015-Jul-11 07:34N 31°21' E 121°40'0 0.0
2015-Jul-11 06:31N 31°21' E 121°40'0 0.0
2015-Jul-11 05:34N 31°21' E 121°40'0 0.0
2015-Jul-11 04:34N 31°21' E 121°40'0 0.1
2015-Jul-11 03:34N 31°21' E 121°40'0 0.1
2015-Jul-11 02:34N 31°21' E 121°40'0 0.1
2015-Jul-11 01:31N 31°21' E 121°40'0 0.1
2015-Jul-11 00:34N 31°21' E 121°40'0 0.1
2015-Jul-10 23:31N 31°21' E 121°40'0 0.0
2015-Jul-10 22:31N 31°21' E 121°40'0 0.0
2015-Jul-10 21:31N 31°21' E 121°40'0 0.0
2015-Jul-10 20:31N 31°21' E 121°40'0 0.2
2015-Jul-10 19:31N 31°21' E 121°40'0 0.0
2015-Jul-10 18:31N 31°21' E 121°40'0 0.2
2015-Jul-10 17:31N 31°21' E 121°40'0 0.0
2015-Jul-10 16:22N 31°21' E 121°40'0 0.1
2015-Jul-10 15:31N 31°21' E 121°40'0 0.0
2015-Jul-10 14:31N 31°21' E 121°40'0 0.1
2015-Jul-10 13:31N 31°21' E 121°40'0 0.1
2015-Jul-10 12:31N 31°21' E 121°40'0 0.1
2015-Jul-10 11:31N 31°21' E 121°40'0 0.1
2015-Jul-10 10:31N 31°21' E 121°40'0 0.1
2015-Jul-10 09:31N 31°21' E 121°40'3 2.9
2015-Jul-10 08:32N 31°19' E 121°42'0 0.0
2015-Jul-10 07:32N 31°19' E 121°42'0 0.0
2015-Jul-10 06:32N 31°19' E 121°42'0 0.0
2015-Jul-10 05:32N 31°19' E 121°42'0 0.0
2015-Jul-10 04:32N 31°19' E 121°42'0 0.0
2015-Jul-10 03:32N 31°19' E 121°42'0 0.0
2015-Jul-10 02:32N 31°19' E 121°42'0 0.0
2015-Jul-10 01:32N 31°19' E 121°42'  

Dump ship's entire track history